sensor_id;sensor_type;location;lat;lon;timestamp;P1;durP1;ratioP1;P2;durP2;ratioP2
20511;SDS011;10414;52.074;5.126;2023-04-06T00:00:24;19.42;;;9.63;;
20511;SDS011;10414;52.074;5.126;2023-04-06T00:02:52;21.38;;;9.75;;
20511;SDS011;10414;52.074;5.126;2023-04-06T00:05:19;20.38;;;9.43;;
20511;SDS011;10414;52.074;5.126;2023-04-06T00:07:46;19.90;;;9.32;;
20511;SDS011;10414;52.074;5.126;2023-04-06T00:10:13;18.08;;;8.70;;
20511;SDS011;10414;52.074;5.126;2023-04-06T00:12:41;19.23;;;8.75;;
20511;SDS011;10414;52.074;5.126;2023-04-06T00:15:09;18.48;;;9.13;;
20511;SDS011;10414;52.074;5.126;2023-04-06T00:17:36;19.08;;;9.88;;
20511;SDS011;10414;52.074;5.126;2023-04-06T00:20:05;20.98;;;9.57;;
20511;SDS011;10414;52.074;5.126;2023-04-06T00:22:33;20.45;;;9.07;;
20511;SDS011;10414;52.074;5.126;2023-04-06T00:25:00;16.42;;;7.72;;
20511;SDS011;10414;52.074;5.126;2023-04-06T00:27:27;16.65;;;8.68;;
20511;SDS011;10414;52.074;5.126;2023-04-06T00:29:54;17.90;;;8.70;;
20511;SDS011;10414;52.074;5.126;2023-04-06T00:32:21;19.70;;;9.25;;
20511;SDS011;10414;52.074;5.126;2023-04-06T00:34:48;15.88;;;8.85;;
20511;SDS011;10414;52.074;5.126;2023-04-06T00:37:16;16.45;;;7.57;;
20511;SDS011;10414;52.074;5.126;2023-04-06T00:39:44;17.65;;;8.55;;
20511;SDS011;10414;52.074;5.126;2023-04-06T00:42:11;17.08;;;8.80;;
20511;SDS011;10414;52.074;5.126;2023-04-06T00:44:39;18.77;;;9.05;;
20511;SDS011;10414;52.074;5.126;2023-04-06T00:47:06;18.27;;;8.00;;
20511;SDS011;10414;52.074;5.126;2023-04-06T00:49:33;19.00;;;8.60;;
20511;SDS011;10414;52.074;5.126;2023-04-06T00:52:01;17.92;;;8.57;;
20511;SDS011;10414;52.074;5.126;2023-04-06T00:54:29;18.00;;;8.88;;
20511;SDS011;10414;52.074;5.126;2023-04-06T00:56:56;20.05;;;9.32;;
20511;SDS011;10414;52.074;5.126;2023-04-06T00:59:23;16.88;;;8.75;;
20511;SDS011;10414;52.074;5.126;2023-04-06T01:01:50;17.15;;;8.18;;
20511;SDS011;10414;52.074;5.126;2023-04-06T01:04:17;20.45;;;8.55;;
20511;SDS011;10414;52.074;5.126;2023-04-06T01:06:44;18.23;;;8.65;;
20511;SDS011;10414;52.074;5.126;2023-04-06T01:09:11;16.67;;;8.52;;
20511;SDS011;10414;52.074;5.126;2023-04-06T01:11:40;17.90;;;8.48;;
20511;SDS011;10414;52.074;5.126;2023-04-06T01:14:07;16.52;;;8.35;;
20511;SDS011;10414;52.074;5.126;2023-04-06T01:16:34;19.50;;;8.48;;
20511;SDS011;10414;52.074;5.126;2023-04-06T01:19:01;17.98;;;8.98;;
20511;SDS011;10414;52.074;5.126;2023-04-06T01:21:33;17.33;;;8.00;;
20511;SDS011;10414;52.074;5.126;2023-04-06T01:24:02;17.83;;;7.90;;
20511;SDS011;10414;52.074;5.126;2023-04-06T01:26:29;16.95;;;7.65;;
20511;SDS011;10414;52.074;5.126;2023-04-06T01:28:56;18.58;;;8.27;;
20511;SDS011;10414;52.074;5.126;2023-04-06T01:31:23;15.65;;;7.88;;
20511;SDS011;10414;52.074;5.126;2023-04-06T01:33:50;18.50;;;8.40;;
20511;SDS011;10414;52.074;5.126;2023-04-06T01:36:17;17.67;;;7.90;;
20511;SDS011;10414;52.074;5.126;2023-04-06T01:38:44;14.48;;;7.15;;
20511;SDS011;10414;52.074;5.126;2023-04-06T01:41:12;18.98;;;7.72;;
20511;SDS011;10414;52.074;5.126;2023-04-06T01:43:39;15.75;;;7.60;;
20511;SDS011;10414;52.074;5.126;2023-04-06T01:46:06;16.17;;;7.78;;
20511;SDS011;10414;52.074;5.126;2023-04-06T01:48:33;16.33;;;7.75;;
20511;SDS011;10414;52.074;5.126;2023-04-06T01:51:00;15.50;;;7.78;;
20511;SDS011;10414;52.074;5.126;2023-04-06T01:53:27;18.75;;;7.78;;
20511;SDS011;10414;52.074;5.126;2023-04-06T01:55:54;17.88;;;7.88;;
20511;SDS011;10414;52.074;5.126;2023-04-06T01:58:22;15.38;;;7.43;;
20511;SDS011;10414;52.074;5.126;2023-04-06T02:00:49;13.10;;;6.53;;
20511;SDS011;10414;52.074;5.126;2023-04-06T02:03:16;16.88;;;7.43;;
20511;SDS011;10414;52.074;5.126;2023-04-06T02:05:43;14.85;;;7.05;;
20511;SDS011;10414;52.074;5.126;2023-04-06T02:08:10;16.48;;;6.80;;
20511;SDS011;10414;52.074;5.126;2023-04-06T02:10:36;16.48;;;7.45;;
20511;SDS011;10414;52.074;5.126;2023-04-06T02:13:03;13.13;;;6.97;;
20511;SDS011;10414;52.074;5.126;2023-04-06T02:15:32;16.10;;;7.68;;
20511;SDS011;10414;52.074;5.126;2023-04-06T02:17:59;16.75;;;7.63;;
20511;SDS011;10414;52.074;5.126;2023-04-06T02:20:26;14.45;;;6.90;;
20511;SDS011;10414;52.074;5.126;2023-04-06T02:22:52;15.02;;;6.78;;
20511;SDS011;10414;52.074;5.126;2023-04-06T02:25:19;16.13;;;7.15;;
20511;SDS011;10414;52.074;5.126;2023-04-06T02:27:46;16.30;;;7.97;;
20511;SDS011;10414;52.074;5.126;2023-04-06T02:30:13;15.35;;;7.35;;
20511;SDS011;10414;52.074;5.126;2023-04-06T02:32:41;17.20;;;7.88;;
20511;SDS011;10414;52.074;5.126;2023-04-06T02:35:08;14.32;;;7.00;;
20511;SDS011;10414;52.074;5.126;2023-04-06T02:37:35;12.85;;;6.45;;
20511;SDS011;10414;52.074;5.126;2023-04-06T02:40:02;15.50;;;7.10;;
20511;SDS011;10414;52.074;5.126;2023-04-06T02:42:31;15.07;;;7.47;;
20511;SDS011;10414;52.074;5.126;2023-04-06T02:44:58;14.00;;;6.40;;
20511;SDS011;10414;52.074;5.126;2023-04-06T02:47:25;14.75;;;7.22;;
20511;SDS011;10414;52.074;5.126;2023-04-06T02:49:53;16.75;;;8.02;;
20511;SDS011;10414;52.074;5.126;2023-04-06T02:52:20;14.45;;;7.07;;
20511;SDS011;10414;52.074;5.126;2023-04-06T02:54:48;16.98;;;6.93;;
20511;SDS011;10414;52.074;5.126;2023-04-06T02:57:16;15.98;;;7.85;;
20511;SDS011;10414;52.074;5.126;2023-04-06T02:59:43;14.80;;;6.78;;
20511;SDS011;10414;52.074;5.126;2023-04-06T03:02:10;14.82;;;7.10;;
20511;SDS011;10414;52.074;5.126;2023-04-06T03:04:36;14.63;;;6.78;;
20511;SDS011;10414;52.074;5.126;2023-04-06T03:07:05;16.02;;;7.30;;
20511;SDS011;10414;52.074;5.126;2023-04-06T03:09:32;14.23;;;6.90;;
20511;SDS011;10414;52.074;5.126;2023-04-06T03:11:58;15.30;;;7.53;;
20511;SDS011;10414;52.074;5.126;2023-04-06T03:14:27;15.38;;;7.05;;
20511;SDS011;10414;52.074;5.126;2023-04-06T03:16:54;15.88;;;7.68;;
20511;SDS011;10414;52.074;5.126;2023-04-06T03:19:21;16.00;;;7.05;;
20511;SDS011;10414;52.074;5.126;2023-04-06T03:21:48;13.70;;;7.40;;
20511;SDS011;10414;52.074;5.126;2023-04-06T03:24:17;15.32;;;7.25;;
20511;SDS011;10414;52.074;5.126;2023-04-06T03:26:44;15.15;;;7.80;;
20511;SDS011;10414;52.074;5.126;2023-04-06T03:29:11;12.88;;;7.03;;
20511;SDS011;10414;52.074;5.126;2023-04-06T03:31:37;16.80;;;7.63;;
20511;SDS011;10414;52.074;5.126;2023-04-06T03:34:05;15.88;;;7.32;;
20511;SDS011;10414;52.074;5.126;2023-04-06T03:36:32;15.18;;;7.72;;
20511;SDS011;10414;52.074;5.126;2023-04-06T03:39:00;15.45;;;7.50;;
20511;SDS011;10414;52.074;5.126;2023-04-06T03:41:28;15.90;;;7.97;;
20511;SDS011;10414;52.074;5.126;2023-04-06T03:43:55;17.02;;;8.20;;
20511;SDS011;10414;52.074;5.126;2023-04-06T03:46:22;16.48;;;7.18;;
20511;SDS011;10414;52.074;5.126;2023-04-06T03:48:49;16.48;;;7.85;;
20511;SDS011;10414;52.074;5.126;2023-04-06T03:51:16;15.77;;;7.75;;
20511;SDS011;10414;52.074;5.126;2023-04-06T03:53:43;16.83;;;7.70;;
20511;SDS011;10414;52.074;5.126;2023-04-06T03:56:10;17.98;;;8.32;;
20511;SDS011;10414;52.074;5.126;2023-04-06T03:58:38;17.30;;;7.60;;
20511;SDS011;10414;52.074;5.126;2023-04-06T04:01:05;19.15;;;8.80;;
20511;SDS011;10414;52.074;5.126;2023-04-06T04:03:32;17.27;;;8.48;;
20511;SDS011;10414;52.074;5.126;2023-04-06T04:05:59;20.88;;;8.73;;
20511;SDS011;10414;52.074;5.126;2023-04-06T04:08:25;15.65;;;7.70;;
20511;SDS011;10414;52.074;5.126;2023-04-06T04:10:52;19.42;;;9.25;;
20511;SDS011;10414;52.074;5.126;2023-04-06T04:13:19;17.25;;;8.57;;
20511;SDS011;10414;52.074;5.126;2023-04-06T04:15:48;19.80;;;8.60;;
20511;SDS011;10414;52.074;5.126;2023-04-06T04:18:14;18.23;;;8.40;;
20511;SDS011;10414;52.074;5.126;2023-04-06T04:20:41;16.85;;;8.00;;
20511;SDS011;10414;52.074;5.126;2023-04-06T04:23:08;18.52;;;8.20;;
20511;SDS011;10414;52.074;5.126;2023-04-06T04:25:35;19.08;;;8.27;;
20511;SDS011;10414;52.074;5.126;2023-04-06T04:28:02;21.08;;;9.18;;
20511;SDS011;10414;52.074;5.126;2023-04-06T04:30:29;18.17;;;9.23;;
20511;SDS011;10414;52.074;5.126;2023-04-06T04:32:57;19.05;;;9.00;;
20511;SDS011;10414;52.074;5.126;2023-04-06T04:35:26;18.67;;;8.68;;
20511;SDS011;10414;52.074;5.126;2023-04-06T04:37:53;18.25;;;9.43;;
20511;SDS011;10414;52.074;5.126;2023-04-06T04:40:19;18.65;;;9.00;;
20511;SDS011;10414;52.074;5.126;2023-04-06T04:42:46;21.85;;;9.32;;
20511;SDS011;10414;52.074;5.126;2023-04-06T04:45:13;21.20;;;9.18;;
20511;SDS011;10414;52.074;5.126;2023-04-06T04:47:40;20.20;;;9.93;;
20511;SDS011;10414;52.074;5.126;2023-04-06T04:50:09;17.58;;;8.95;;
20511;SDS011;10414;52.074;5.126;2023-04-06T04:52:37;18.73;;;8.90;;
20511;SDS011;10414;52.074;5.126;2023-04-06T04:55:04;18.65;;;9.23;;
20511;SDS011;10414;52.074;5.126;2023-04-06T04:57:31;25.42;;;9.63;;
20511;SDS011;10414;52.074;5.126;2023-04-06T04:59:58;24.38;;;9.35;;
20511;SDS011;10414;52.074;5.126;2023-04-06T05:02:26;19.75;;;9.20;;
20511;SDS011;10414;52.074;5.126;2023-04-06T05:04:53;18.75;;;9.43;;
20511;SDS011;10414;52.074;5.126;2023-04-06T05:07:21;20.00;;;9.85;;
20511;SDS011;10414;52.074;5.126;2023-04-06T05:09:48;23.83;;;9.90;;
20511;SDS011;10414;52.074;5.126;2023-04-06T05:12:15;21.00;;;9.50;;
20511;SDS011;10414;52.074;5.126;2023-04-06T05:14:42;21.73;;;10.48;;
20511;SDS011;10414;52.074;5.126;2023-04-06T05:17:10;21.15;;;10.32;;
20511;SDS011;10414;52.074;5.126;2023-04-06T05:19:37;19.02;;;8.85;;
20511;SDS011;10414;52.074;5.126;2023-04-06T05:22:04;22.17;;;9.88;;
20511;SDS011;10414;52.074;5.126;2023-04-06T05:24:32;22.00;;;10.10;;
20511;SDS011;10414;52.074;5.126;2023-04-06T05:27:00;23.77;;;9.95;;
20511;SDS011;10414;52.074;5.126;2023-04-06T05:29:27;21.70;;;9.93;;
20511;SDS011;10414;52.074;5.126;2023-04-06T05:31:54;22.20;;;10.23;;
20511;SDS011;10414;52.074;5.126;2023-04-06T05:34:21;19.60;;;9.82;;
20511;SDS011;10414;52.074;5.126;2023-04-06T05:36:48;21.00;;;9.90;;
20511;SDS011;10414;52.074;5.126;2023-04-06T05:39:15;24.33;;;10.20;;
20511;SDS011;10414;52.074;5.126;2023-04-06T05:41:43;22.73;;;10.77;;
20511;SDS011;10414;52.074;5.126;2023-04-06T05:44:10;21.48;;;11.07;;
20511;SDS011;10414;52.074;5.126;2023-04-06T05:46:37;22.35;;;10.85;;
20511;SDS011;10414;52.074;5.126;2023-04-06T05:49:04;21.05;;;9.80;;
20511;SDS011;10414;52.074;5.126;2023-04-06T05:51:31;22.13;;;9.60;;
20511;SDS011;10414;52.074;5.126;2023-04-06T05:53:58;23.85;;;11.20;;
20511;SDS011;10414;52.074;5.126;2023-04-06T05:56:25;24.00;;;10.75;;
20511;SDS011;10414;52.074;5.126;2023-04-06T05:58:54;23.20;;;11.02;;
20511;SDS011;10414;52.074;5.126;2023-04-06T06:01:21;23.40;;;11.02;;
20511;SDS011;10414;52.074;5.126;2023-04-06T06:03:47;25.58;;;11.20;;
20511;SDS011;10414;52.074;5.126;2023-04-06T06:06:14;21.65;;;10.23;;
20511;SDS011;10414;52.074;5.126;2023-04-06T06:08:41;21.30;;;9.77;;
20511;SDS011;10414;52.074;5.126;2023-04-06T06:11:08;22.85;;;10.25;;
20511;SDS011;10414;52.074;5.126;2023-04-06T06:13:35;21.35;;;10.55;;
20511;SDS011;10414;52.074;5.126;2023-04-06T06:16:04;26.02;;;10.65;;
20511;SDS011;10414;52.074;5.126;2023-04-06T06:18:31;24.85;;;10.75;;
20511;SDS011;10414;52.074;5.126;2023-04-06T06:20:58;20.65;;;10.32;;
20511;SDS011;10414;52.074;5.126;2023-04-06T06:23:25;21.48;;;10.52;;
20511;SDS011;10414;52.074;5.126;2023-04-06T06:25:52;25.00;;;11.05;;
20511;SDS011;10414;52.074;5.126;2023-04-06T06:28:21;29.10;;;11.75;;
20511;SDS011;10414;52.074;5.126;2023-04-06T06:30:50;23.90;;;10.75;;
20511;SDS011;10414;52.074;5.126;2023-04-06T06:33:18;22.67;;;10.90;;
20511;SDS011;10414;52.074;5.126;2023-04-06T06:35:45;25.73;;;11.23;;
20511;SDS011;10414;52.074;5.126;2023-04-06T06:38:12;24.15;;;11.45;;
20511;SDS011;10414;52.074;5.126;2023-04-06T06:40:40;25.10;;;10.35;;
20511;SDS011;10414;52.074;5.126;2023-04-06T06:43:07;22.45;;;10.70;;
20511;SDS011;10414;52.074;5.126;2023-04-06T06:45:34;24.55;;;11.07;;
20511;SDS011;10414;52.074;5.126;2023-04-06T06:48:01;22.98;;;11.20;;
20511;SDS011;10414;52.074;5.126;2023-04-06T06:50:29;21.48;;;11.00;;
20511;SDS011;10414;52.074;5.126;2023-04-06T06:52:56;24.52;;;11.48;;
20511;SDS011;10414;52.074;5.126;2023-04-06T06:55:23;23.73;;;10.70;;
20511;SDS011;10414;52.074;5.126;2023-04-06T06:57:51;22.08;;;11.13;;
20511;SDS011;10414;52.074;5.126;2023-04-06T07:00:19;23.75;;;10.70;;
20511;SDS011;10414;52.074;5.126;2023-04-06T07:02:46;22.30;;;11.75;;
20511;SDS011;10414;52.074;5.126;2023-04-06T07:05:13;25.40;;;11.07;;
20511;SDS011;10414;52.074;5.126;2023-04-06T07:07:41;19.75;;;10.35;;
20511;SDS011;10414;52.074;5.126;2023-04-06T07:10:09;26.02;;;11.57;;
20511;SDS011;10414;52.074;5.126;2023-04-06T07:12:36;26.42;;;11.43;;
20511;SDS011;10414;52.074;5.126;2023-04-06T07:15:04;23.52;;;10.90;;
20511;SDS011;10414;52.074;5.126;2023-04-06T07:17:31;24.25;;;11.40;;
20511;SDS011;10414;52.074;5.126;2023-04-06T07:19:58;26.73;;;11.75;;
20511;SDS011;10414;52.074;5.126;2023-04-06T07:22:25;24.17;;;11.57;;
20511;SDS011;10414;52.074;5.126;2023-04-06T07:24:53;23.83;;;11.10;;
20511;SDS011;10414;52.074;5.126;2023-04-06T07:27:20;28.40;;;11.23;;
20511;SDS011;10414;52.074;5.126;2023-04-06T07:29:47;24.30;;;11.43;;
20511;SDS011;10414;52.074;5.126;2023-04-06T07:32:14;24.95;;;11.32;;
20511;SDS011;10414;52.074;5.126;2023-04-06T07:34:41;25.50;;;10.88;;
20511;SDS011;10414;52.074;5.126;2023-04-06T07:37:10;26.08;;;11.45;;
20511;SDS011;10414;52.074;5.126;2023-04-06T07:39:37;23.23;;;10.80;;
20511;SDS011;10414;52.074;5.126;2023-04-06T07:42:05;22.40;;;10.43;;
20511;SDS011;10414;52.074;5.126;2023-04-06T07:44:32;24.48;;;11.73;;
20511;SDS011;10414;52.074;5.126;2023-04-06T07:46:59;29.30;;;11.60;;
20511;SDS011;10414;52.074;5.126;2023-04-06T07:49:26;24.10;;;10.88;;
20511;SDS011;10414;52.074;5.126;2023-04-06T07:51:53;24.17;;;11.82;;
20511;SDS011;10414;52.074;5.126;2023-04-06T07:54:20;25.75;;;11.32;;
20511;SDS011;10414;52.074;5.126;2023-04-06T07:56:47;24.05;;;11.32;;
20511;SDS011;10414;52.074;5.126;2023-04-06T07:59:16;26.40;;;12.50;;
20511;SDS011;10414;52.074;5.126;2023-04-06T08:01:43;25.85;;;12.02;;
20511;SDS011;10414;52.074;5.126;2023-04-06T08:04:10;25.55;;;12.00;;
20511;SDS011;10414;52.074;5.126;2023-04-06T08:06:36;26.20;;;11.90;;
20511;SDS011;10414;52.074;5.126;2023-04-06T08:09:03;25.25;;;12.07;;
20511;SDS011;10414;52.074;5.126;2023-04-06T08:11:30;25.20;;;11.73;;
20511;SDS011;10414;52.074;5.126;2023-04-06T08:13:57;29.17;;;12.38;;
20511;SDS011;10414;52.074;5.126;2023-04-06T08:16:25;23.17;;;11.75;;
20511;SDS011;10414;52.074;5.126;2023-04-06T08:18:52;25.63;;;12.77;;
20511;SDS011;10414;52.074;5.126;2023-04-06T08:21:19;26.00;;;12.10;;
20511;SDS011;10414;52.074;5.126;2023-04-06T08:23:46;27.08;;;12.70;;
20511;SDS011;10414;52.074;5.126;2023-04-06T08:26:13;29.92;;;12.02;;
20511;SDS011;10414;52.074;5.126;2023-04-06T08:28:40;25.08;;;11.10;;
20511;SDS011;10414;52.074;5.126;2023-04-06T08:31:07;24.45;;;12.05;;
20511;SDS011;10414;52.074;5.126;2023-04-06T08:33:35;24.98;;;12.13;;
20511;SDS011;10414;52.074;5.126;2023-04-06T08:36:08;27.55;;;13.10;;
20511;SDS011;10414;52.074;5.126;2023-04-06T08:38:35;28.02;;;13.25;;
20511;SDS011;10414;52.074;5.126;2023-04-06T08:41:06;24.98;;;12.05;;
20511;SDS011;10414;52.074;5.126;2023-04-06T08:43:35;26.80;;;12.25;;
20511;SDS011;10414;52.074;5.126;2023-04-06T08:46:08;25.63;;;12.93;;
20511;SDS011;10414;52.074;5.126;2023-04-06T08:48:37;25.02;;;12.50;;
20511;SDS011;10414;52.074;5.126;2023-04-06T08:51:05;26.43;;;11.93;;
20511;SDS011;10414;52.074;5.126;2023-04-06T08:53:33;27.50;;;12.88;;
20511;SDS011;10414;52.074;5.126;2023-04-06T08:56:00;25.17;;;12.52;;
20511;SDS011;10414;52.074;5.126;2023-04-06T08:58:28;29.58;;;13.60;;
20511;SDS011;10414;52.074;5.126;2023-04-06T09:00:59;27.85;;;13.38;;
20511;SDS011;10414;52.074;5.126;2023-04-06T09:03:28;23.45;;;11.23;;
20511;SDS011;10414;52.074;5.126;2023-04-06T09:05:57;28.33;;;13.30;;
20511;SDS011;10414;52.074;5.126;2023-04-06T09:08:25;28.73;;;13.25;;
20511;SDS011;10414;52.074;5.126;2023-04-06T09:10:52;28.63;;;13.13;;
20511;SDS011;10414;52.074;5.126;2023-04-06T09:13:19;27.20;;;13.80;;
20511;SDS011;10414;52.074;5.126;2023-04-06T09:15:46;27.77;;;13.43;;
20511;SDS011;10414;52.074;5.126;2023-04-06T09:18:13;30.13;;;13.82;;
20511;SDS011;10414;52.074;5.126;2023-04-06T09:20:57;32.22;;;13.15;;
20511;SDS011;10414;52.074;5.126;2023-04-06T09:23:25;31.65;;;14.50;;
20511;SDS011;10414;52.074;5.126;2023-04-06T09:25:52;30.15;;;14.15;;
20511;SDS011;10414;52.074;5.126;2023-04-06T09:28:43;28.15;;;14.48;;
20511;SDS011;10414;52.074;5.126;2023-04-06T09:31:11;30.95;;;13.32;;
20511;SDS011;10414;52.074;5.126;2023-04-06T09:33:40;30.83;;;14.55;;
20511;SDS011;10414;52.074;5.126;2023-04-06T09:36:09;30.35;;;15.10;;
20511;SDS011;10414;52.074;5.126;2023-04-06T09:38:37;29.35;;;14.95;;
20511;SDS011;10414;52.074;5.126;2023-04-06T09:41:04;33.13;;;15.93;;
20511;SDS011;10414;52.074;5.126;2023-04-06T09:43:31;38.92;;;17.15;;
20511;SDS011;10414;52.074;5.126;2023-04-06T09:45:59;28.65;;;14.45;;
20511;SDS011;10414;52.074;5.126;2023-04-06T09:48:29;29.95;;;13.77;;
20511;SDS011;10414;52.074;5.126;2023-04-06T09:50:59;26.30;;;12.70;;
20511;SDS011;10414;52.074;5.126;2023-04-06T09:53:32;28.13;;;14.15;;
20511;SDS011;10414;52.074;5.126;2023-04-06T09:56:03;31.38;;;14.25;;
20511;SDS011;10414;52.074;5.126;2023-04-06T09:58:33;23.38;;;11.88;;
20511;SDS011;10414;52.074;5.126;2023-04-06T10:01:06;27.33;;;12.25;;
20511;SDS011;10414;52.074;5.126;2023-04-06T10:03:36;21.83;;;10.40;;
20511;SDS011;10414;52.074;5.126;2023-04-06T10:06:12;28.58;;;12.38;;
20511;SDS011;10414;52.074;5.126;2023-04-06T10:08:42;22.58;;;9.98;;
20511;SDS011;10414;52.074;5.126;2023-04-06T10:11:11;20.63;;;9.95;;
20511;SDS011;10414;52.074;5.126;2023-04-06T10:13:39;23.13;;;9.57;;
20511;SDS011;10414;52.074;5.126;2023-04-06T10:16:07;20.48;;;9.32;;
20511;SDS011;10414;52.074;5.126;2023-04-06T10:18:34;21.75;;;9.57;;
20511;SDS011;10414;52.074;5.126;2023-04-06T10:21:04;20.35;;;9.80;;
20511;SDS011;10414;52.074;5.126;2023-04-06T10:23:35;19.33;;;9.13;;
20511;SDS011;10414;52.074;5.126;2023-04-06T10:26:04;17.35;;;8.40;;
20511;SDS011;10414;52.074;5.126;2023-04-06T10:28:32;16.58;;;8.02;;
20511;SDS011;10414;52.074;5.126;2023-04-06T10:31:02;18.35;;;7.60;;
20511;SDS011;10414;52.074;5.126;2023-04-06T10:33:31;16.67;;;8.77;;
20511;SDS011;10414;52.074;5.126;2023-04-06T10:35:58;16.05;;;7.20;;
20511;SDS011;10414;52.074;5.126;2023-04-06T10:38:37;14.00;;;7.20;;
20511;SDS011;10414;52.074;5.126;2023-04-06T10:41:07;15.77;;;6.38;;
20511;SDS011;10414;52.074;5.126;2023-04-06T10:43:35;14.57;;;6.97;;
20511;SDS011;10414;52.074;5.126;2023-04-06T10:46:03;15.18;;;6.97;;
20511;SDS011;10414;52.074;5.126;2023-04-06T10:48:38;13.90;;;6.93;;
20511;SDS011;10414;52.074;5.126;2023-04-06T10:51:09;18.42;;;6.95;;
20511;SDS011;10414;52.074;5.126;2023-04-06T10:53:37;12.93;;;6.80;;
20511;SDS011;10414;52.074;5.126;2023-04-06T10:56:09;12.98;;;6.55;;
20511;SDS011;10414;52.074;5.126;2023-04-06T10:58:37;13.95;;;6.55;;
20511;SDS011;10414;52.074;5.126;2023-04-06T11:01:04;12.90;;;6.50;;
20511;SDS011;10414;52.074;5.126;2023-04-06T11:03:31;14.15;;;6.55;;
20511;SDS011;10414;52.074;5.126;2023-04-06T11:06:09;11.65;;;5.78;;
20511;SDS011;10414;52.074;5.126;2023-04-06T11:08:36;13.15;;;6.40;;
20511;SDS011;10414;52.074;5.126;2023-04-06T11:11:05;10.63;;;5.45;;
20511;SDS011;10414;52.074;5.126;2023-04-06T11:13:38;13.15;;;6.25;;
20511;SDS011;10414;52.074;5.126;2023-04-06T11:16:06;10.77;;;5.43;;
20511;SDS011;10414;52.074;5.126;2023-04-06T11:18:38;13.20;;;5.55;;
20511;SDS011;10414;52.074;5.126;2023-04-06T11:21:12;11.02;;;5.55;;
20511;SDS011;10414;52.074;5.126;2023-04-06T11:23:40;11.25;;;5.85;;
20511;SDS011;10414;52.074;5.126;2023-04-06T11:26:10;12.38;;;6.28;;
20511;SDS011;10414;52.074;5.126;2023-04-06T11:28:39;14.13;;;6.43;;
20511;SDS011;10414;52.074;5.126;2023-04-06T11:31:07;12.50;;;6.22;;
20511;SDS011;10414;52.074;5.126;2023-04-06T11:33:35;11.50;;;5.95;;
20511;SDS011;10414;52.074;5.126;2023-04-06T11:36:03;13.65;;;6.75;;
20511;SDS011;10414;52.074;5.126;2023-04-06T11:38:30;11.60;;;5.90;;
20511;SDS011;10414;52.074;5.126;2023-04-06T11:40:57;13.90;;;6.40;;
20511;SDS011;10414;52.074;5.126;2023-04-06T11:43:27;11.40;;;5.85;;
20511;SDS011;10414;52.074;5.126;2023-04-06T11:46:03;12.30;;;5.88;;
20511;SDS011;10414;52.074;5.126;2023-04-06T11:48:31;13.90;;;5.65;;
20511;SDS011;10414;52.074;5.126;2023-04-06T11:50:58;11.63;;;5.95;;
20511;SDS011;10414;52.074;5.126;2023-04-06T11:53:27;11.23;;;5.47;;
20511;SDS011;10414;52.074;5.126;2023-04-06T11:55:54;11.05;;;6.35;;
20511;SDS011;10414;52.074;5.126;2023-04-06T11:58:21;12.48;;;6.60;;
20511;SDS011;10414;52.074;5.126;2023-04-06T12:00:48;13.20;;;6.15;;
20511;SDS011;10414;52.074;5.126;2023-04-06T12:03:16;13.10;;;6.82;;
20511;SDS011;10414;52.074;5.126;2023-04-06T12:05:43;13.45;;;6.57;;
20511;SDS011;10414;52.074;5.126;2023-04-06T12:08:10;15.35;;;6.97;;
20511;SDS011;10414;52.074;5.126;2023-04-06T12:10:37;11.85;;;6.00;;
20511;SDS011;10414;52.074;5.126;2023-04-06T12:13:04;11.95;;;6.18;;
20511;SDS011;10414;52.074;5.126;2023-04-06T12:15:31;13.57;;;6.95;;
20511;SDS011;10414;52.074;5.126;2023-04-06T12:17:58;13.40;;;6.78;;
20511;SDS011;10414;52.074;5.126;2023-04-06T12:20:26;13.90;;;7.13;;
20511;SDS011;10414;52.074;5.126;2023-04-06T12:22:53;15.52;;;7.25;;
20511;SDS011;10414;52.074;5.126;2023-04-06T12:25:20;16.48;;;7.35;;
20511;SDS011;10414;52.074;5.126;2023-04-06T12:27:47;14.43;;;7.03;;
20511;SDS011;10414;52.074;5.126;2023-04-06T12:30:14;14.18;;;7.10;;
20511;SDS011;10414;52.074;5.126;2023-04-06T12:32:42;15.40;;;6.88;;
20511;SDS011;10414;52.074;5.126;2023-04-06T12:35:09;15.93;;;7.95;;
20511;SDS011;10414;52.074;5.126;2023-04-06T12:37:38;15.73;;;7.85;;
20511;SDS011;10414;52.074;5.126;2023-04-06T12:40:05;18.77;;;8.93;;
20511;SDS011;10414;52.074;5.126;2023-04-06T12:42:35;17.42;;;8.18;;
20511;SDS011;10414;52.074;5.126;2023-04-06T12:45:02;17.98;;;8.60;;
20511;SDS011;10414;52.074;5.126;2023-04-06T12:47:29;16.25;;;9.10;;
20511;SDS011;10414;52.074;5.126;2023-04-06T12:49:57;16.77;;;8.05;;
20511;SDS011;10414;52.074;5.126;2023-04-06T12:52:24;15.77;;;8.13;;
20511;SDS011;10414;52.074;5.126;2023-04-06T12:54:53;17.55;;;8.75;;
20511;SDS011;10414;52.074;5.126;2023-04-06T12:57:20;18.67;;;9.25;;
20511;SDS011;10414;52.074;5.126;2023-04-06T12:59:48;17.10;;;8.98;;
20511;SDS011;10414;52.074;5.126;2023-04-06T13:02:17;18.13;;;9.05;;
20511;SDS011;10414;52.074;5.126;2023-04-06T13:04:45;19.17;;;8.98;;
20511;SDS011;10414;52.074;5.126;2023-04-06T13:07:12;16.08;;;8.73;;
20511;SDS011;10414;52.074;5.126;2023-04-06T13:09:39;17.95;;;9.05;;
20511;SDS011;10414;52.074;5.126;2023-04-06T13:12:07;17.10;;;8.30;;
20511;SDS011;10414;52.074;5.126;2023-04-06T13:14:34;17.75;;;9.35;;
20511;SDS011;10414;52.074;5.126;2023-04-06T13:17:01;17.92;;;8.77;;
20511;SDS011;10414;52.074;5.126;2023-04-06T13:19:28;18.35;;;8.90;;
20511;SDS011;10414;52.074;5.126;2023-04-06T13:21:56;18.63;;;9.15;;
20511;SDS011;10414;52.074;5.126;2023-04-06T13:24:23;20.30;;;9.85;;
20511;SDS011;10414;52.074;5.126;2023-04-06T13:26:50;19.08;;;10.32;;
20511;SDS011;10414;52.074;5.126;2023-04-06T13:29:18;17.67;;;9.23;;
20511;SDS011;10414;52.074;5.126;2023-04-06T13:31:45;21.50;;;10.13;;
20511;SDS011;10414;52.074;5.126;2023-04-06T13:34:12;18.92;;;10.63;;
20511;SDS011;10414;52.074;5.126;2023-04-06T13:36:39;18.77;;;9.52;;
20511;SDS011;10414;52.074;5.126;2023-04-06T13:39:07;16.70;;;9.23;;
20511;SDS011;10414;52.074;5.126;2023-04-06T13:41:34;21.38;;;9.60;;
20511;SDS011;10414;52.074;5.126;2023-04-06T13:44:01;25.90;;;9.98;;
20511;SDS011;10414;52.074;5.126;2023-04-06T13:46:30;19.35;;;9.73;;
20511;SDS011;10414;52.074;5.126;2023-04-06T13:48:57;19.50;;;10.85;;
20511;SDS011;10414;52.074;5.126;2023-04-06T13:51:24;19.92;;;10.50;;
20511;SDS011;10414;52.074;5.126;2023-04-06T13:53:52;19.30;;;10.00;;
20511;SDS011;10414;52.074;5.126;2023-04-06T13:56:18;22.33;;;10.82;;
20511;SDS011;10414;52.074;5.126;2023-04-06T13:58:46;19.52;;;10.13;;
20511;SDS011;10414;52.074;5.126;2023-04-06T14:01:12;22.20;;;11.10;;
20511;SDS011;10414;52.074;5.126;2023-04-06T14:03:41;22.55;;;10.43;;
20511;SDS011;10414;52.074;5.126;2023-04-06T14:06:10;20.20;;;9.45;;
20511;SDS011;10414;52.074;5.126;2023-04-06T14:08:38;17.70;;;9.35;;
20511;SDS011;10414;52.074;5.126;2023-04-06T14:11:06;20.63;;;10.20;;
20511;SDS011;10414;52.074;5.126;2023-04-06T14:13:36;23.50;;;11.52;;
20511;SDS011;10414;52.074;5.126;2023-04-06T14:16:04;25.35;;;10.13;;
20511;SDS011;10414;52.074;5.126;2023-04-06T14:18:31;18.60;;;9.95;;
20511;SDS011;10414;52.074;5.126;2023-04-06T14:21:00;17.90;;;9.93;;
20511;SDS011;10414;52.074;5.126;2023-04-06T14:23:27;23.52;;;9.98;;
20511;SDS011;10414;52.074;5.126;2023-04-06T14:26:00;20.73;;;10.90;;
20511;SDS011;10414;52.074;5.126;2023-04-06T14:28:28;20.75;;;10.50;;
20511;SDS011;10414;52.074;5.126;2023-04-06T14:30:55;22.92;;;11.63;;
20511;SDS011;10414;52.074;5.126;2023-04-06T14:33:23;20.08;;;11.02;;